createdAt,value
2019-05-06T00:01:57.081Z,2.03
2019-05-06T00:04:28.021Z,2.30
2019-05-06T00:06:58.739Z,2.10
2019-05-06T00:09:48.346Z,2.10
2019-05-06T00:12:19.101Z,2.37
2019-05-06T00:14:49.855Z,2.13
2019-05-06T00:17:23.918Z,1.83
2019-05-06T00:19:57.085Z,2.03
2019-05-06T00:22:26.933Z,2.13
2019-05-06T00:25:05.362Z,2.03
2019-05-06T00:27:58.044Z,2.40
2019-05-06T00:30:30.145Z,2.13
2019-05-06T00:33:00.695Z,1.90
2019-05-06T00:35:31.330Z,2.50
2019-05-06T00:38:01.939Z,2.07
2019-05-06T00:40:36.963Z,2.50
2019-05-06T00:43:08.915Z,2.27
2019-05-06T00:45:39.661Z,1.67
2019-05-06T00:48:10.398Z,2.30
2019-05-06T00:50:40.972Z,2.00
2019-05-06T00:53:14.177Z,3.50
2019-05-06T00:55:47.974Z,4.93
2019-05-06T00:58:20.159Z,5.47
2019-05-06T01:00:50.819Z,4.33
2019-05-06T01:03:23.284Z,4.27
2019-05-06T01:05:54.398Z,4.03
2019-05-06T01:08:25.112Z,3.20
2019-05-06T01:10:55.621Z,3.17
2019-05-06T01:13:35.080Z,3.40
2019-05-06T01:16:05.906Z,3.90
2019-05-06T01:18:36.664Z,3.90
2019-05-06T01:21:11.765Z,3.77
2019-05-06T01:23:46.496Z,3.90
2019-05-06T01:26:18.727Z,4.30
2019-05-06T01:28:49.668Z,3.77
2019-05-06T01:31:20.347Z,6.10
2019-05-06T01:33:51.077Z,7.43
2019-05-06T01:36:21.654Z,7.80
2019-05-06T01:39:07.711Z,6.50
2019-05-06T01:41:53.650Z,5.60
2019-05-06T01:44:24.538Z,3.60
2019-05-06T01:46:55.345Z,3.07
2019-05-06T01:49:26.091Z,2.80
2019-05-06T01:51:58.827Z,3.13
2019-05-06T01:54:29.436Z,3.17
2019-05-06T01:57:00.096Z,2.90
2019-05-06T01:59:34.079Z,2.90
2019-05-06T02:02:05.212Z,2.87
2019-05-06T02:04:35.760Z,3.00
2019-05-06T02:07:06.303Z,2.80
2019-05-06T02:09:36.857Z,2.20
2019-05-06T02:12:26.673Z,3.00
2019-05-06T02:14:57.599Z,2.53
2019-05-06T02:17:28.315Z,2.60
2019-05-06T02:20:00.656Z,2.90
2019-05-06T02:22:46.670Z,2.27
2019-05-06T02:25:24.340Z,2.50
2019-05-06T02:27:55.742Z,2.87
2019-05-06T02:30:36.555Z,2.50
2019-05-06T02:33:18.660Z,2.77
2019-05-06T02:35:59.854Z,2.63
2019-05-06T02:38:39.167Z,2.60
2019-05-06T02:41:04.863Z,2.93
2019-05-06T02:43:36.982Z,2.70
2019-05-06T02:46:07.763Z,2.30
2019-05-06T02:48:54.214Z,2.53
2019-05-06T02:51:28.806Z,2.40
2019-05-06T02:53:59.627Z,2.70
2019-05-06T02:56:33.142Z,2.73
2019-05-06T02:59:03.984Z,2.40
2019-05-06T03:01:35.011Z,2.60
2019-05-06T03:04:05.643Z,2.60
2019-05-06T03:06:36.371Z,1.80
2019-05-06T03:09:08.880Z,2.90
2019-05-06T03:11:39.745Z,2.33
2019-05-06T03:14:13.867Z,2.27
2019-05-06T03:16:44.181Z,2.87
2019-05-06T03:19:14.740Z,2.53
2019-05-06T03:22:29.593Z,2.70
2019-05-06T03:25:07.506Z,2.57
2019-05-06T03:27:38.126Z,2.87
2019-05-06T03:30:09.370Z,2.70
2019-05-06T03:33:14.225Z,2.70
2019-05-06T03:35:31.444Z,2.80
2019-05-06T03:37:45.327Z,2.70
2019-05-06T03:40:15.951Z,2.90
2019-05-06T03:42:46.660Z,2.83
2019-05-06T03:45:37.019Z,2.50
2019-05-06T03:48:13.054Z,2.63
2019-05-06T03:50:45.555Z,2.60
2019-05-06T03:53:16.752Z,2.93
2019-05-06T03:55:49.354Z,2.30
2019-05-06T03:58:26.261Z,2.80
2019-05-06T04:00:55.163Z,2.77
2019-05-06T04:03:42.624Z,3.10
2019-05-06T04:05:57.806Z,3.30
2019-05-06T04:08:28.869Z,3.17
2019-05-06T04:11:02.963Z,2.40
2019-05-06T04:13:33.476Z,2.50
2019-05-06T04:16:19.149Z,3.67
2019-05-06T04:18:57.067Z,3.73
2019-05-06T04:21:44.126Z,3.67
2019-05-06T04:24:33.714Z,3.30
2019-05-06T04:27:24.566Z,3.97
2019-05-06T04:29:55.471Z,3.90
2019-05-06T04:32:26.175Z,3.20
2019-05-06T04:34:57.002Z,3.20
2019-05-06T04:37:27.946Z,2.90
2019-05-06T04:39:59.110Z,3.13
2019-05-06T04:42:30.166Z,2.73
2019-05-06T04:45:04.664Z,2.90
2019-05-06T04:47:36.236Z,2.37
2019-05-06T04:50:07.892Z,2.90
2019-05-06T04:52:38.844Z,2.77
2019-05-06T04:55:09.591Z,3.03
2019-05-06T04:57:40.260Z,3.60
2019-05-06T05:00:12.983Z,3.20
2019-05-06T05:02:46.417Z,2.70
2019-05-06T05:05:17.226Z,3.33
2019-05-06T05:07:48.276Z,2.80
2019-05-06T05:10:23.376Z,2.60
2019-05-06T05:13:12.589Z,3.80
2019-05-06T05:15:52.509Z,3.10
2019-05-06T05:18:32.077Z,3.10
2019-05-06T05:21:02.939Z,3.10
2019-05-06T05:23:33.694Z,3.03
2019-05-06T05:26:04.415Z,3.53
2019-05-06T05:28:35.914Z,3.23
2019-05-06T05:31:06.391Z,3.70
2019-05-06T05:33:36.932Z,3.70
2019-05-06T05:36:07.709Z,3.13
2019-05-06T05:38:38.485Z,3.70
2019-05-06T05:41:09.369Z,2.77
2019-05-06T05:43:49.615Z,2.67
2019-05-06T05:46:21.868Z,3.60
2019-05-06T05:49:04.689Z,3.20
2019-05-06T05:51:35.790Z,3.53
2019-05-06T05:54:06.514Z,4.20
2019-05-06T05:56:37.248Z,3.53
2019-05-06T05:59:08.000Z,4.17
2019-05-06T06:01:39.015Z,3.50
2019-05-06T06:04:09.967Z,4.20
2019-05-06T06:06:42.355Z,4.50
2019-05-06T06:09:12.960Z,5.30
2019-05-06T06:11:53.182Z,4.30
2019-05-06T06:14:56.377Z,5.13
2019-05-06T06:17:52.333Z,4.10
2019-05-06T06:20:42.295Z,4.10
2019-05-06T06:23:19.821Z,3.77
2019-05-06T06:25:52.902Z,3.77
2019-05-06T06:28:24.776Z,4.83
2019-05-06T06:31:18.307Z,4.80
2019-05-06T06:33:52.969Z,4.20
2019-05-06T06:36:41.763Z,4.10
2019-05-06T06:39:18.207Z,4.20
2019-05-06T06:42:07.859Z,4.63
2019-05-06T06:44:39.043Z,4.37
2019-05-06T06:47:09.565Z,4.47
2019-05-06T06:49:42.397Z,4.87
2019-05-06T06:52:14.870Z,4.83
2019-05-06T06:54:46.830Z,4.80
2019-05-06T06:57:32.342Z,4.30
2019-05-06T07:00:53.914Z,4.93
2019-05-06T07:03:58.656Z,4.60
2019-05-06T07:06:35.340Z,4.50
2019-05-06T07:09:07.276Z,4.40
2019-05-06T07:11:38.051Z,4.23
2019-05-06T07:14:08.674Z,5.33
2019-05-06T07:16:39.706Z,4.40
2019-05-06T07:19:14.115Z,4.60
2019-05-06T07:21:52.265Z,4.50
2019-05-06T07:24:22.947Z,5.40
2019-05-06T07:26:58.273Z,4.23
2019-05-06T07:29:28.816Z,4.80
2019-05-06T07:31:59.503Z,5.13
2019-05-06T07:34:32.095Z,4.57
2019-05-06T07:37:03.508Z,4.40
2019-05-06T07:39:34.369Z,4.30
2019-05-06T07:42:09.846Z,4.27
2019-05-06T07:45:17.833Z,3.47
2019-05-06T07:48:00.484Z,3.60
2019-05-06T07:50:33.080Z,3.13
2019-05-06T07:53:13.309Z,2.77
2019-05-06T07:55:44.075Z,3.00
2019-05-06T07:58:14.945Z,2.97
2019-05-06T08:00:45.391Z,2.80
2019-05-06T08:03:16.239Z,3.40
2019-05-06T08:05:57.503Z,3.00
2019-05-06T08:08:19.115Z,2.70
2019-05-06T08:10:49.591Z,3.37
2019-05-06T08:13:22.471Z,3.40
2019-05-06T08:15:53.223Z,3.10
2019-05-06T08:18:24.183Z,3.53
2019-05-06T08:20:55.352Z,3.47
2019-05-06T08:23:47.307Z,3.07
2019-05-06T08:26:18.238Z,3.00
2019-05-06T08:28:49.083Z,3.17
2019-05-06T08:31:22.362Z,2.93
2019-05-06T08:33:52.778Z,2.50
2019-05-06T08:39:27.321Z,2.83
2019-05-06T08:42:02.630Z,2.67
2019-05-06T08:44:32.368Z,2.90
2019-05-06T08:47:02.858Z,2.80
2019-05-06T08:49:52.870Z,2.83
2019-05-06T08:52:27.226Z,2.30
2019-05-06T08:55:02.167Z,2.60
2019-05-06T08:57:32.514Z,2.97
2019-05-06T09:00:03.584Z,2.57
2019-05-06T09:02:34.213Z,2.40
2019-05-06T09:05:04.883Z,2.83
2019-05-06T09:07:42.900Z,1.80
2019-05-06T09:10:15.803Z,2.63
2019-05-06T09:12:46.527Z,2.63
2019-05-06T09:15:17.932Z,2.83
2019-05-06T09:17:48.439Z,2.50
2019-05-06T09:20:18.957Z,2.73
2019-05-06T09:22:49.463Z,2.80
2019-05-06T09:25:20.072Z,2.73
2019-05-06T09:28:03.826Z,2.80
2019-05-06T09:30:40.589Z,3.30
2019-05-06T09:33:12.874Z,2.67
2019-05-06T09:35:43.615Z,2.97
2019-05-06T09:38:14.136Z,2.67
2019-05-06T09:40:44.831Z,2.70
2019-05-06T09:43:18.390Z,3.50
2019-05-06T09:45:48.915Z,3.20
2019-05-06T09:48:25.164Z,3.57
2019-05-06T09:50:58.688Z,3.63
2019-05-06T09:53:35.734Z,2.97
2019-05-06T09:56:24.089Z,3.53
2019-05-06T09:58:55.385Z,2.60
2019-05-06T10:01:26.260Z,3.20
2019-05-06T10:04:03.260Z,3.13
2019-05-06T10:06:33.952Z,3.80
2019-05-06T10:09:15.272Z,3.73
2019-05-06T10:11:42.711Z,3.40
2019-05-06T10:14:13.275Z,3.50
2019-05-06T10:16:44.190Z,2.83
2019-05-06T10:19:14.791Z,3.30
2019-05-06T10:21:45.425Z,3.23
2019-05-06T10:24:35.005Z,3.50
2019-05-06T10:27:05.618Z,3.60
2019-05-06T10:30:03.248Z,3.70
2019-05-06T10:32:46.465Z,3.60
2019-05-06T10:35:17.341Z,3.50
2019-05-06T10:38:13.756Z,2.70
2019-05-06T10:40:59.668Z,3.20
2019-05-06T10:43:28.358Z,3.77
2019-05-06T10:46:01.183Z,3.70
2019-05-06T10:48:31.565Z,3.00
2019-05-06T10:51:13.223Z,3.70
2019-05-06T10:53:42.536Z,3.40
2019-05-06T10:56:32.179Z,3.33
2019-05-06T10:59:03.434Z,3.53
2019-05-06T11:01:37.504Z,3.43
2019-05-06T11:04:08.063Z,3.93
2019-05-06T11:06:38.583Z,3.50
2019-05-06T11:09:10.036Z,3.60
2019-05-06T11:11:42.724Z,3.87
2019-05-06T11:14:13.013Z,3.83
2019-05-06T11:16:44.183Z,3.90
2019-05-06T11:19:14.687Z,3.70
2019-05-06T11:21:45.423Z,3.50
2019-05-06T11:24:15.971Z,4.30
2019-05-06T11:26:46.540Z,3.97
2019-05-06T11:29:37.857Z,3.83
2019-05-06T11:32:23.953Z,3.67
2019-05-06T11:35:03.598Z,3.70
2019-05-06T11:37:50.484Z,4.80
2019-05-06T11:40:19.034Z,3.93
2019-05-06T11:42:49.627Z,4.20
2019-05-06T11:45:23.112Z,3.50
2019-05-06T11:47:55.971Z,4.50
2019-05-06T11:50:27.669Z,4.07
2019-05-06T11:53:02.292Z,4.10
2019-05-06T11:55:38.078Z,5.30
2019-05-06T11:58:07.298Z,4.27
2019-05-06T12:00:44.424Z,4.37
2019-05-06T12:03:13.424Z,4.23
2019-05-06T12:05:46.343Z,3.50
2019-05-06T12:08:16.864Z,4.73
2019-05-06T12:10:47.407Z,4.70
2019-05-06T12:13:17.881Z,3.90
2019-05-06T12:15:48.378Z,4.20
2019-05-06T12:18:19.035Z,4.00
2019-05-06T12:20:49.568Z,3.90
2019-05-06T12:23:22.443Z,4.10
2019-05-06T12:25:52.891Z,3.60
2019-05-06T12:28:23.513Z,3.57
2019-05-06T12:30:54.015Z,3.20
2019-05-06T12:33:36.536Z,3.00
2019-05-06T12:36:21.828Z,3.50
2019-05-06T12:39:15.778Z,3.67
2019-05-06T12:42:15.593Z,3.60
2019-05-06T12:45:23.039Z,3.40
2019-05-06T12:48:04.832Z,3.60
2019-05-06T12:50:35.413Z,3.60
2019-05-06T12:53:05.915Z,3.17
2019-05-06T12:55:36.628Z,3.33
2019-05-06T12:58:07.317Z,4.53
2019-05-06T13:00:37.868Z,4.57
2019-05-06T13:03:08.424Z,3.90
2019-05-06T13:05:39.012Z,5.20
2019-05-06T13:08:09.956Z,5.80
2019-05-06T13:10:42.143Z,5.40
2019-05-06T13:13:14.750Z,5.23
2019-05-06T13:15:45.307Z,5.47
2019-05-06T13:18:24.031Z,4.87
2019-05-06T13:20:54.863Z,4.27
2019-05-06T13:23:43.384Z,3.83
2019-05-06T13:26:13.990Z,3.63
2019-05-06T13:28:50.338Z,4.03
2019-05-06T13:31:24.981Z,3.37
2019-05-06T13:33:55.624Z,3.30
2019-05-06T13:36:27.760Z,3.20
2019-05-06T13:39:13.479Z,4.40
2019-05-06T13:41:32.526Z,3.30
2019-05-06T13:44:13.575Z,3.50
2019-05-06T13:46:54.921Z,4.00
2019-05-06T13:49:35.219Z,4.57
2019-05-06T13:52:07.374Z,3.33
2019-05-06T13:54:38.104Z,3.43
2019-05-06T13:57:08.822Z,3.70
2019-05-06T13:59:39.540Z,3.57
2019-05-06T14:02:39.009Z,3.97
2019-05-06T14:05:12.005Z,3.90
2019-05-06T14:07:43.295Z,4.13
2019-05-06T14:10:15.362Z,4.20
2019-05-06T14:12:45.989Z,3.60
2019-05-06T14:15:17.122Z,3.73
2019-05-06T14:17:47.989Z,4.30
2019-05-06T14:20:18.748Z,5.30
2019-05-06T14:22:49.322Z,4.93
2019-05-06T14:25:33.797Z,4.43
2019-05-06T14:28:12.405Z,4.57
2019-05-06T14:30:58.803Z,4.50
2019-05-06T14:33:29.386Z,4.40
2019-05-06T14:35:59.989Z,3.87
2019-05-06T14:38:33.347Z,4.50
2019-05-06T14:41:12.861Z,4.37
2019-05-06T14:43:43.073Z,3.77
2019-05-06T14:46:17.032Z,3.73
2019-05-06T14:48:47.921Z,3.93
2019-05-06T14:51:18.552Z,3.60
2019-05-06T14:53:49.470Z,4.00
2019-05-06T14:56:44.913Z,4.20
2019-05-06T14:59:15.514Z,5.30
2019-05-06T15:01:46.167Z,5.20
2019-05-06T15:04:16.740Z,5.60
2019-05-06T15:06:47.317Z,6.40
2019-05-06T15:09:17.958Z,6.37
2019-05-06T15:11:49.656Z,5.13
2019-05-06T15:14:22.544Z,5.67
2019-05-06T15:16:52.876Z,4.37
2019-05-06T15:19:23.464Z,5.80
2019-05-06T15:21:54.083Z,5.50
2019-05-06T15:24:24.612Z,5.17
2019-05-06T15:26:55.297Z,5.27
2019-05-06T15:29:25.938Z,4.87
2019-05-06T15:32:33.691Z,5.13
2019-05-06T15:35:38.556Z,5.33
2019-05-06T15:38:14.241Z,5.30
2019-05-06T15:40:44.965Z,5.10
2019-05-06T15:43:15.799Z,6.33
2019-05-06T15:45:46.469Z,5.40
2019-05-06T15:48:17.088Z,5.97
2019-05-06T15:50:49.326Z,5.33
2019-05-06T15:53:22.312Z,5.93
2019-05-06T15:55:53.464Z,5.97
2019-05-06T15:58:25.261Z,5.10
2019-05-06T16:00:55.941Z,5.60
2019-05-06T16:03:26.697Z,5.90
2019-05-06T16:05:57.205Z,4.93
2019-05-06T16:08:28.070Z,5.67
2019-05-06T16:10:59.093Z,5.00
2019-05-06T16:13:29.875Z,5.60
2019-05-06T16:16:02.777Z,5.30
2019-05-06T16:18:34.015Z,5.40
2019-05-06T16:21:06.056Z,4.87
2019-05-06T16:24:02.404Z,6.30
2019-05-06T16:26:33.363Z,4.60
2019-05-06T16:29:03.891Z,5.40
2019-05-06T16:31:35.838Z,5.40
2019-05-06T16:34:06.547Z,4.27
2019-05-06T16:36:37.323Z,4.93
2019-05-06T16:39:08.448Z,5.07
2019-05-06T16:41:42.274Z,4.77
2019-05-06T16:44:12.931Z,4.70
2019-05-06T16:46:43.430Z,4.50
2019-05-06T16:49:14.226Z,5.10
2019-05-06T16:51:44.903Z,4.50
2019-05-06T16:54:15.797Z,4.80
2019-05-06T16:56:52.897Z,4.70
2019-05-06T16:59:23.822Z,5.00
2019-05-06T17:01:54.443Z,5.90
2019-05-06T17:04:36.934Z,4.63
2019-05-06T17:07:07.442Z,4.80
2019-05-06T17:09:38.022Z,4.50
2019-05-06T17:12:27.745Z,5.33
2019-05-06T17:14:58.936Z,4.60
2019-05-06T17:17:41.175Z,5.40
2019-05-06T17:20:03.170Z,4.93
2019-05-06T17:22:34.065Z,5.50
2019-05-06T17:25:06.822Z,4.87
2019-05-06T17:27:58.038Z,5.10
2019-05-06T17:30:38.434Z,5.60
2019-05-06T17:33:27.203Z,4.87
2019-05-06T17:35:57.959Z,4.70
2019-05-06T17:38:34.051Z,4.90
2019-05-06T17:41:27.936Z,4.90
2019-05-06T17:43:55.898Z,5.63
2019-05-06T17:46:28.177Z,5.20
2019-05-06T17:49:04.547Z,7.40
2019-05-06T17:51:38.331Z,6.67
2019-05-06T17:54:09.223Z,5.13
2019-05-06T17:56:41.925Z,5.37
2019-05-06T17:59:12.677Z,6.10
2019-05-06T18:01:47.725Z,5.93
2019-05-06T18:04:19.203Z,6.83
2019-05-06T18:06:52.470Z,5.80
2019-05-06T18:09:23.354Z,5.67
2019-05-06T18:11:58.752Z,6.00
2019-05-06T18:14:26.345Z,6.50
2019-05-06T18:16:56.801Z,6.50
2019-05-06T18:19:27.208Z,6.53
2019-05-06T18:21:57.721Z,7.07
2019-05-06T18:24:28.324Z,6.67
2019-05-06T18:26:58.909Z,6.47
2019-05-06T18:29:29.485Z,6.23
2019-05-06T18:32:00.033Z,6.17
2019-05-06T18:34:32.959Z,6.10
2019-05-06T18:37:05.691Z,11.40
2019-05-06T18:39:36.360Z,8.97
2019-05-06T18:42:16.896Z,7.57
2019-05-06T18:44:39.194Z,6.00
2019-05-06T18:47:12.084Z,7.17
2019-05-06T18:49:42.767Z,6.33
2019-05-06T18:52:13.490Z,6.10
2019-05-06T18:54:46.094Z,6.23
2019-05-06T18:57:38.823Z,5.83
2019-05-06T19:00:10.244Z,6.10
2019-05-06T19:02:42.320Z,5.83
2019-05-06T19:05:23.057Z,6.90
2019-05-06T19:07:52.907Z,6.33
2019-05-06T19:10:28.707Z,6.17
2019-05-06T19:12:59.363Z,6.17
2019-05-06T19:15:32.741Z,6.27
2019-05-06T19:18:03.999Z,6.17
2019-05-06T19:20:34.829Z,5.57
2019-05-06T19:23:05.459Z,6.20
2019-05-06T19:25:35.963Z,5.60
2019-05-06T19:28:06.947Z,5.30
2019-05-06T19:30:37.586Z,5.70
2019-05-06T19:33:08.214Z,5.50
2019-05-06T19:35:38.813Z,5.20
2019-05-06T19:38:12.535Z,6.00
2019-05-06T19:40:43.254Z,6.03
2019-05-06T19:43:13.868Z,5.43
2019-05-06T19:45:44.384Z,6.00
2019-05-06T19:48:15.004Z,6.83
2019-05-06T19:50:45.714Z,5.77
2019-05-06T19:53:19.553Z,6.77
2019-05-06T19:55:50.232Z,6.40
2019-05-06T19:58:20.698Z,6.60
2019-05-06T20:00:52.848Z,6.50
2019-05-06T20:03:23.462Z,6.10
2019-05-06T20:06:25.063Z,7.20
2019-05-06T20:09:16.354Z,6.57
2019-05-06T20:11:47.562Z,6.70
2019-05-06T20:14:18.107Z,6.87
2019-05-06T20:16:48.714Z,6.67
2019-05-06T20:19:29.749Z,6.63
2019-05-06T20:21:55.228Z,6.00
2019-05-06T20:24:27.271Z,6.23
2019-05-06T20:26:57.847Z,5.53
2019-05-06T20:29:28.476Z,6.10
2019-05-06T20:31:59.017Z,6.70
2019-05-06T20:34:31.945Z,6.30
2019-05-06T20:37:02.142Z,5.70
2019-05-06T20:39:33.952Z,7.07
2019-05-06T20:42:04.551Z,5.90
2019-05-06T20:44:35.486Z,6.97
2019-05-06T20:47:06.074Z,6.40
2019-05-06T20:49:36.693Z,7.07
2019-05-06T20:52:08.661Z,6.57
2019-05-06T20:54:39.456Z,6.90
2019-05-06T20:57:12.278Z,7.13
2019-05-06T20:59:42.974Z,7.00
2019-05-06T21:02:17.099Z,6.83
2019-05-06T21:04:47.608Z,6.80
2019-05-06T21:07:18.111Z,7.30
2019-05-06T21:09:48.940Z,7.00
2019-05-06T21:12:21.813Z,7.70
2019-05-06T21:14:52.354Z,7.10
2019-05-06T21:17:22.997Z,7.23
2019-05-06T21:19:54.134Z,8.33
2019-05-06T21:22:24.642Z,8.50
2019-05-06T21:24:55.208Z,7.70
2019-05-06T21:27:26.222Z,7.97
2019-05-06T21:29:57.271Z,7.40
2019-05-06T21:32:29.641Z,7.87
2019-05-06T21:35:02.216Z,7.60
2019-05-06T21:37:32.977Z,8.60
2019-05-06T21:40:03.422Z,8.80
2019-05-06T21:42:33.958Z,8.37
2019-05-06T21:45:04.877Z,8.47
2019-05-06T21:47:35.492Z,8.87
2019-05-06T21:50:07.755Z,9.20
2019-05-06T21:52:39.797Z,9.07
2019-05-06T21:55:13.220Z,8.70
2019-05-06T21:57:43.370Z,9.13
2019-05-06T22:00:16.947Z,8.20
2019-05-06T22:02:46.743Z,8.47
2019-05-06T22:05:17.539Z,10.20
2019-05-06T22:07:48.067Z,9.50
2019-05-06T22:10:18.754Z,10.07
2019-05-06T22:12:52.576Z,9.87
2019-05-06T22:15:23.074Z,9.97
2019-05-06T22:17:54.677Z,9.40
2019-05-06T22:20:26.746Z,9.60
2019-05-06T22:22:57.273Z,9.60
2019-05-06T22:25:28.132Z,9.50
2019-05-06T22:27:59.882Z,9.60
2019-05-06T22:30:32.866Z,9.50
2019-05-06T22:33:03.668Z,8.47
2019-05-06T22:35:35.937Z,9.40
2019-05-06T22:38:06.385Z,9.20
2019-05-06T22:40:38.394Z,8.70
2019-05-06T22:43:09.007Z,8.80
2019-05-06T22:45:42.540Z,9.67
2019-05-06T22:48:13.193Z,9.73
2019-05-06T22:50:43.901Z,9.53
2019-05-06T22:53:33.429Z,9.60
2019-05-06T22:56:23.130Z,9.83
2019-05-06T23:06:03.910Z,9.80
2019-05-06T23:08:46.356Z,8.90
2019-05-06T23:11:29.314Z,9.70
2019-05-06T23:14:12.418Z,8.03
2019-05-06T23:16:54.563Z,8.90
2019-05-06T23:19:36.418Z,8.97
2019-05-06T23:22:18.340Z,9.70
2019-05-06T23:25:02.111Z,9.23
2019-05-06T23:27:44.314Z,9.73
2019-05-06T23:30:26.745Z,8.80
2019-05-06T23:33:08.828Z,9.07
2019-05-06T23:35:51.843Z,9.27
2019-05-06T23:38:34.025Z,9.20
2019-05-06T23:41:17.112Z,9.37
2019-05-06T23:43:59.202Z,9.17
2019-05-06T23:46:41.559Z,9.00
2019-05-06T23:49:23.405Z,8.00
2019-05-06T23:52:05.423Z,8.53
2019-05-06T23:54:47.343Z,8.90
2019-05-06T23:57:29.759Z,7.83
